sensor_id;sensor_type;location;lat;lon;timestamp;P1;durP1;ratioP1;P2;durP2;ratioP2
13028;SDS011;6581;42.662;23.402;2022-07-12T00:01:41;4.20;;;3.90;;
13028;SDS011;6581;42.662;23.402;2022-07-12T00:04:33;4.50;;;4.20;;
13028;SDS011;6581;42.662;23.402;2022-07-12T00:07:01;4.68;;;4.28;;
13028;SDS011;6581;42.662;23.402;2022-07-12T00:09:28;5.85;;;4.68;;
13028;SDS011;6581;42.662;23.402;2022-07-12T00:11:56;4.85;;;4.50;;
13028;SDS011;6581;42.662;23.402;2022-07-12T00:14:25;6.07;;;4.78;;
13028;SDS011;6581;42.662;23.402;2022-07-12T00:16:52;6.93;;;4.97;;
13028;SDS011;6581;42.662;23.402;2022-07-12T00:19:19;6.47;;;5.07;;
13028;SDS011;6581;42.662;23.402;2022-07-12T00:21:46;5.72;;;5.13;;
13028;SDS011;6581;42.662;23.402;2022-07-12T00:24:14;7.78;;;5.80;;
13028;SDS011;6581;42.662;23.402;2022-07-12T00:26:42;6.20;;;5.70;;
13028;SDS011;6581;42.662;23.402;2022-07-12T00:29:09;6.20;;;5.70;;
13028;SDS011;6581;42.662;23.402;2022-07-12T00:31:38;6.13;;;5.63;;
13028;SDS011;6581;42.662;23.402;2022-07-12T00:34:05;6.22;;;5.60;;
13028;SDS011;6581;42.662;23.402;2022-07-12T00:36:33;7.63;;;6.10;;
13028;SDS011;6581;42.662;23.402;2022-07-12T00:39:00;7.25;;;5.97;;
13028;SDS011;6581;42.662;23.402;2022-07-12T00:41:27;6.50;;;5.90;;
13028;SDS011;6581;42.662;23.402;2022-07-12T00:43:54;6.72;;;6.10;;
13028;SDS011;6581;42.662;23.402;2022-07-12T00:46:22;6.82;;;6.22;;
13028;SDS011;6581;42.662;23.402;2022-07-12T00:48:51;6.57;;;5.97;;
13028;SDS011;6581;42.662;23.402;2022-07-12T00:51:19;7.53;;;6.28;;
13028;SDS011;6581;42.662;23.402;2022-07-12T00:53:47;7.72;;;6.88;;
13028;SDS011;6581;42.662;23.402;2022-07-12T00:56:14;7.45;;;6.70;;
13028;SDS011;6581;42.662;23.402;2022-07-12T00:58:41;8.52;;;6.30;;
13028;SDS011;6581;42.662;23.402;2022-07-12T01:01:09;7.07;;;6.38;;
13028;SDS011;6581;42.662;23.402;2022-07-12T01:03:38;7.70;;;6.07;;
13028;SDS011;6581;42.662;23.402;2022-07-12T01:06:06;7.10;;;6.40;;
13028;SDS011;6581;42.662;23.402;2022-07-12T01:08:34;5.95;;;5.53;;
13028;SDS011;6581;42.662;23.402;2022-07-12T01:11:02;7.55;;;5.13;;
13028;SDS011;6581;42.662;23.402;2022-07-12T01:13:30;6.13;;;5.15;;
13028;SDS011;6581;42.662;23.402;2022-07-12T01:16:22;7.60;;;5.90;;
13028;SDS011;6581;42.662;23.402;2022-07-12T01:18:50;6.93;;;6.22;;
13028;SDS011;6581;42.662;23.402;2022-07-12T01:21:20;6.80;;;6.05;;
13028;SDS011;6581;42.662;23.402;2022-07-12T01:23:51;6.10;;;5.50;;
13028;SDS011;6581;42.662;23.402;2022-07-12T01:26:20;7.10;;;5.43;;
13028;SDS011;6581;42.662;23.402;2022-07-12T01:28:49;6.70;;;5.88;;
13028;SDS011;6581;42.662;23.402;2022-07-12T01:31:19;7.63;;;5.70;;
13028;SDS011;6581;42.662;23.402;2022-07-12T01:33:47;5.50;;;5.00;;
13028;SDS011;6581;42.662;23.402;2022-07-12T01:36:14;6.97;;;5.05;;
13028;SDS011;6581;42.662;23.402;2022-07-12T01:38:42;7.50;;;5.35;;
13028;SDS011;6581;42.662;23.402;2022-07-12T01:41:10;5.75;;;5.30;;
13028;SDS011;6581;42.662;23.402;2022-07-12T01:43:38;5.35;;;4.90;;
13028;SDS011;6581;42.662;23.402;2022-07-12T01:46:05;5.82;;;5.32;;
13028;SDS011;6581;42.662;23.402;2022-07-12T01:48:32;6.47;;;5.13;;
13028;SDS011;6581;42.662;23.402;2022-07-12T01:51:00;5.70;;;5.03;;
13028;SDS011;6581;42.662;23.402;2022-07-12T01:53:28;6.47;;;5.60;;
13028;SDS011;6581;42.662;23.402;2022-07-12T01:55:55;6.43;;;5.72;;
13028;SDS011;6581;42.662;23.402;2022-07-12T01:58:24;8.57;;;5.80;;
13028;SDS011;6581;42.662;23.402;2022-07-12T02:00:51;8.15;;;6.35;;
13028;SDS011;6581;42.662;23.402;2022-07-12T02:03:19;6.68;;;6.07;;
13028;SDS011;6581;42.662;23.402;2022-07-12T02:05:46;6.75;;;6.25;;
13028;SDS011;6581;42.662;23.402;2022-07-12T02:08:14;6.72;;;6.22;;
13028;SDS011;6581;42.662;23.402;2022-07-12T02:10:41;8.30;;;6.07;;
13028;SDS011;6581;42.662;23.402;2022-07-12T02:13:09;8.38;;;5.47;;
13028;SDS011;6581;42.662;23.402;2022-07-12T02:15:38;6.93;;;6.10;;
13028;SDS011;6581;42.662;23.402;2022-07-12T02:18:05;6.43;;;5.88;;
13028;SDS011;6581;42.662;23.402;2022-07-12T02:20:32;6.35;;;5.75;;
13028;SDS011;6581;42.662;23.402;2022-07-12T02:22:59;6.20;;;5.55;;
13028;SDS011;6581;42.662;23.402;2022-07-12T02:25:26;6.60;;;5.72;;
13028;SDS011;6581;42.662;23.402;2022-07-12T02:27:54;6.40;;;5.82;;
13028;SDS011;6581;42.662;23.402;2022-07-12T02:30:21;6.18;;;5.68;;
13028;SDS011;6581;42.662;23.402;2022-07-12T02:32:50;6.45;;;5.85;;
13028;SDS011;6581;42.662;23.402;2022-07-12T02:35:17;6.60;;;6.03;;
13028;SDS011;6581;42.662;23.402;2022-07-12T02:37:45;7.13;;;5.75;;
13028;SDS011;6581;42.662;23.402;2022-07-12T02:40:12;6.43;;;5.90;;
13028;SDS011;6581;42.662;23.402;2022-07-12T02:42:57;6.10;;;5.60;;
13028;SDS011;6581;42.662;23.402;2022-07-12T02:45:24;6.47;;;5.88;;
13028;SDS011;6581;42.662;23.402;2022-07-12T02:47:52;6.20;;;5.60;;
13028;SDS011;6581;42.662;23.402;2022-07-12T02:50:20;5.70;;;5.13;;
13028;SDS011;6581;42.662;23.402;2022-07-12T02:52:48;6.13;;;5.47;;
13028;SDS011;6581;42.662;23.402;2022-07-12T02:55:15;6.18;;;5.60;;
13028;SDS011;6581;42.662;23.402;2022-07-12T02:57:42;8.13;;;6.15;;
13028;SDS011;6581;42.662;23.402;2022-07-12T03:00:09;7.10;;;6.40;;
13028;SDS011;6581;42.662;23.402;2022-07-12T03:02:37;6.90;;;6.30;;
13028;SDS011;6581;42.662;23.402;2022-07-12T03:05:06;8.15;;;6.13;;
13028;SDS011;6581;42.662;23.402;2022-07-12T03:07:34;6.60;;;6.00;;
13028;SDS011;6581;42.662;23.402;2022-07-12T03:10:02;7.00;;;5.88;;
13028;SDS011;6581;42.662;23.402;2022-07-12T03:12:30;8.75;;;6.60;;
13028;SDS011;6581;42.662;23.402;2022-07-12T03:15:21;7.85;;;6.43;;
13028;SDS011;6581;42.662;23.402;2022-07-12T03:17:49;6.97;;;6.35;;
13028;SDS011;6581;42.662;23.402;2022-07-12T03:20:18;7.80;;;7.00;;
13028;SDS011;6581;42.662;23.402;2022-07-12T03:23:10;7.70;;;7.00;;
13028;SDS011;6581;42.662;23.402;2022-07-12T03:25:37;11.85;;;7.10;;
13028;SDS011;6581;42.662;23.402;2022-07-12T03:28:04;9.02;;;6.80;;
13028;SDS011;6581;42.662;23.402;2022-07-12T03:30:32;9.60;;;7.40;;
13028;SDS011;6581;42.662;23.402;2022-07-12T03:32:59;10.88;;;6.78;;
13028;SDS011;6581;42.662;23.402;2022-07-12T03:35:28;7.82;;;7.03;;
13028;SDS011;6581;42.662;23.402;2022-07-12T03:37:55;9.73;;;6.90;;
13028;SDS011;6581;42.662;23.402;2022-07-12T03:40:48;9.45;;;7.72;;
13028;SDS011;6581;42.662;23.402;2022-07-12T03:43:15;9.07;;;7.82;;
13028;SDS011;6581;42.662;23.402;2022-07-12T03:45:43;9.85;;;7.40;;
13028;SDS011;6581;42.662;23.402;2022-07-12T03:48:11;7.70;;;6.90;;
13028;SDS011;6581;42.662;23.402;2022-07-12T03:50:39;8.25;;;7.32;;
13028;SDS011;6581;42.662;23.402;2022-07-12T03:53:06;7.70;;;7.00;;
13028;SDS011;6581;42.662;23.402;2022-07-12T03:55:34;7.03;;;6.32;;
13028;SDS011;6581;42.662;23.402;2022-07-12T03:58:01;7.13;;;6.32;;
13028;SDS011;6581;42.662;23.402;2022-07-12T04:00:28;7.35;;;6.28;;
13028;SDS011;6581;42.662;23.402;2022-07-12T04:02:55;6.72;;;6.13;;
13028;SDS011;6581;42.662;23.402;2022-07-12T04:05:23;9.30;;;7.15;;
13028;SDS011;6581;42.662;23.402;2022-07-12T04:07:53;7.15;;;6.28;;
13028;SDS011;6581;42.662;23.402;2022-07-12T04:10:20;6.60;;;5.90;;
13028;SDS011;6581;42.662;23.402;2022-07-12T04:12:48;7.97;;;7.22;;
13028;SDS011;6581;42.662;23.402;2022-07-12T04:15:15;6.60;;;6.00;;
13028;SDS011;6581;42.662;23.402;2022-07-12T04:17:42;8.52;;;6.45;;
13028;SDS011;6581;42.662;23.402;2022-07-12T04:20:10;7.57;;;6.18;;
13028;SDS011;6581;42.662;23.402;2022-07-12T04:22:38;6.93;;;6.43;;
13028;SDS011;6581;42.662;23.402;2022-07-12T04:25:08;7.28;;;6.68;;
13028;SDS011;6581;42.662;23.402;2022-07-12T04:27:36;7.18;;;6.57;;
13028;SDS011;6581;42.662;23.402;2022-07-12T04:30:04;7.68;;;6.07;;
13028;SDS011;6581;42.662;23.402;2022-07-12T04:32:33;6.55;;;5.95;;
13028;SDS011;6581;42.662;23.402;2022-07-12T04:35:00;6.97;;;6.28;;
13028;SDS011;6581;42.662;23.402;2022-07-12T04:37:27;8.07;;;6.97;;
13028;SDS011;6581;42.662;23.402;2022-07-12T04:39:54;9.25;;;6.85;;
13028;SDS011;6581;42.662;23.402;2022-07-12T04:42:22;8.27;;;6.80;;
13028;SDS011;6581;42.662;23.402;2022-07-12T04:44:49;7.45;;;6.75;;
13028;SDS011;6581;42.662;23.402;2022-07-12T04:47:17;7.28;;;6.53;;
13028;SDS011;6581;42.662;23.402;2022-07-12T04:49:44;6.75;;;6.15;;
13028;SDS011;6581;42.662;23.402;2022-07-12T04:52:12;8.77;;;5.80;;
13028;SDS011;6581;42.662;23.402;2022-07-12T04:54:39;5.90;;;5.22;;
13028;SDS011;6581;42.662;23.402;2022-07-12T04:57:06;7.93;;;5.90;;
13028;SDS011;6581;42.662;23.402;2022-07-12T04:59:35;6.32;;;5.63;;
13028;SDS011;6581;42.662;23.402;2022-07-12T05:02:02;7.70;;;5.45;;
13028;SDS011;6581;42.662;23.402;2022-07-12T05:04:31;6.40;;;5.80;;
13028;SDS011;6581;42.662;23.402;2022-07-12T05:06:58;6.45;;;5.72;;
13028;SDS011;6581;42.662;23.402;2022-07-12T05:09:26;7.38;;;5.68;;
13028;SDS011;6581;42.662;23.402;2022-07-12T05:11:53;7.30;;;5.75;;
13028;SDS011;6581;42.662;23.402;2022-07-12T05:14:20;6.03;;;4.88;;
13028;SDS011;6581;42.662;23.402;2022-07-12T05:16:49;6.40;;;5.10;;
13028;SDS011;6581;42.662;23.402;2022-07-12T05:19:16;6.07;;;5.47;;
13028;SDS011;6581;42.662;23.402;2022-07-12T05:21:44;7.07;;;5.18;;
13028;SDS011;6581;42.662;23.402;2022-07-12T05:24:11;6.32;;;5.72;;
13028;SDS011;6581;42.662;23.402;2022-07-12T05:26:38;7.93;;;5.20;;
13028;SDS011;6581;42.662;23.402;2022-07-12T05:29:05;8.40;;;5.70;;
13028;SDS011;6581;42.662;23.402;2022-07-12T05:31:32;7.13;;;5.40;;
13028;SDS011;6581;42.662;23.402;2022-07-12T05:34:02;6.03;;;5.45;;
13028;SDS011;6581;42.662;23.402;2022-07-12T05:36:29;13.30;;;7.10;;
13028;SDS011;6581;42.662;23.402;2022-07-12T05:39:22;9.75;;;6.47;;
13028;SDS011;6581;42.662;23.402;2022-07-12T05:41:49;7.50;;;6.35;;
13028;SDS011;6581;42.662;23.402;2022-07-12T05:44:16;7.68;;;6.35;;
13028;SDS011;6581;42.662;23.402;2022-07-12T05:46:44;7.45;;;6.53;;
13028;SDS011;6581;42.662;23.402;2022-07-12T05:49:13;21.10;;;17.13;;
13028;SDS011;6581;42.662;23.402;2022-07-12T05:51:41;9.52;;;6.90;;
13028;SDS011;6581;42.662;23.402;2022-07-12T05:54:32;7.43;;;6.13;;
13028;SDS011;6581;42.662;23.402;2022-07-12T05:56:59;9.27;;;6.25;;
13028;SDS011;6581;42.662;23.402;2022-07-12T05:59:26;6.63;;;5.93;;
13028;SDS011;6581;42.662;23.402;2022-07-12T06:01:55;8.73;;;5.95;;
13028;SDS011;6581;42.662;23.402;2022-07-12T06:04:49;8.45;;;5.60;;
13028;SDS011;6581;42.662;23.402;2022-07-12T06:07:17;6.28;;;5.57;;
13028;SDS011;6581;42.662;23.402;2022-07-12T06:09:44;6.70;;;5.47;;
13028;SDS011;6581;42.662;23.402;2022-07-12T06:12:12;7.30;;;5.20;;
13028;SDS011;6581;42.662;23.402;2022-07-12T06:14:39;6.72;;;5.93;;
13028;SDS011;6581;42.662;23.402;2022-07-12T06:17:06;10.43;;;5.80;;
13028;SDS011;6581;42.662;23.402;2022-07-12T06:19:34;8.68;;;5.65;;
13028;SDS011;6581;42.662;23.402;2022-07-12T06:22:03;7.03;;;5.55;;
13028;SDS011;6581;42.662;23.402;2022-07-12T06:24:31;7.32;;;5.70;;
13028;SDS011;6581;42.662;23.402;2022-07-12T06:27:24;12.30;;;6.00;;
13028;SDS011;6581;42.662;23.402;2022-07-12T06:29:53;7.28;;;5.32;;
13028;SDS011;6581;42.662;23.402;2022-07-12T06:32:20;7.22;;;4.97;;
13028;SDS011;6581;42.662;23.402;2022-07-12T06:34:47;6.25;;;4.85;;
13028;SDS011;6581;42.662;23.402;2022-07-12T06:37:16;7.53;;;5.00;;
13028;SDS011;6581;42.662;23.402;2022-07-12T06:39:43;6.45;;;4.80;;
13028;SDS011;6581;42.662;23.402;2022-07-12T06:42:12;6.60;;;4.60;;
13028;SDS011;6581;42.662;23.402;2022-07-12T06:44:50;6.93;;;4.95;;
13028;SDS011;6581;42.662;23.402;2022-07-12T06:47:17;6.00;;;4.90;;
13028;SDS011;6581;42.662;23.402;2022-07-12T06:49:44;6.47;;;4.50;;
13028;SDS011;6581;42.662;23.402;2022-07-12T06:52:12;10.50;;;4.40;;
13028;SDS011;6581;42.662;23.402;2022-07-12T06:54:41;7.72;;;4.43;;
13028;SDS011;6581;42.662;23.402;2022-07-12T06:57:08;6.80;;;4.25;;
13028;SDS011;6581;42.662;23.402;2022-07-12T06:59:36;7.60;;;4.10;;
13028;SDS011;6581;42.662;23.402;2022-07-12T07:02:04;6.15;;;4.13;;
13028;SDS011;6581;42.662;23.402;2022-07-12T07:04:34;8.63;;;3.85;;
13028;SDS011;6581;42.662;23.402;2022-07-12T07:07:02;5.20;;;3.38;;
13028;SDS011;6581;42.662;23.402;2022-07-12T07:09:29;3.97;;;2.95;;
13028;SDS011;6581;42.662;23.402;2022-07-12T07:11:58;5.28;;;3.08;;
13028;SDS011;6581;42.662;23.402;2022-07-12T07:14:25;4.93;;;2.97;;
13028;SDS011;6581;42.662;23.402;2022-07-12T07:16:53;5.55;;;2.75;;
13028;SDS011;6581;42.662;23.402;2022-07-12T07:19:22;4.88;;;2.72;;
13028;SDS011;6581;42.662;23.402;2022-07-12T07:21:52;4.72;;;2.83;;
13028;SDS011;6581;42.662;23.402;2022-07-12T07:24:20;5.70;;;2.50;;
13028;SDS011;6581;42.662;23.402;2022-07-12T07:26:48;3.40;;;2.40;;
13028;SDS011;6581;42.662;23.402;2022-07-12T07:29:17;5.57;;;2.20;;
13028;SDS011;6581;42.662;23.402;2022-07-12T07:32:02;2.80;;;2.20;;
13028;SDS011;6581;42.662;23.402;2022-07-12T07:34:30;3.03;;;1.90;;
13028;SDS011;6581;42.662;23.402;2022-07-12T07:36:57;2.97;;;1.88;;
13028;SDS011;6581;42.662;23.402;2022-07-12T07:39:25;2.75;;;1.50;;
13028;SDS011;6581;42.662;23.402;2022-07-12T07:41:52;4.60;;;2.00;;
13028;SDS011;6581;42.662;23.402;2022-07-12T07:44:20;4.53;;;1.98;;
13028;SDS011;6581;42.662;23.402;2022-07-12T07:46:47;2.42;;;1.60;;
13028;SDS011;6581;42.662;23.402;2022-07-12T07:49:15;2.47;;;1.50;;
13028;SDS011;6581;42.662;23.402;2022-07-12T07:51:42;3.65;;;1.70;;
13028;SDS011;6581;42.662;23.402;2022-07-12T07:54:10;2.70;;;1.85;;
13028;SDS011;6581;42.662;23.402;2022-07-12T07:56:37;2.63;;;1.33;;
13028;SDS011;6581;42.662;23.402;2022-07-12T07:59:04;3.03;;;1.55;;
13028;SDS011;6581;42.662;23.402;2022-07-12T08:01:34;3.88;;;1.55;;
13028;SDS011;6581;42.662;23.402;2022-07-12T08:04:11;2.75;;;1.40;;
13028;SDS011;6581;42.662;23.402;2022-07-12T08:06:39;3.00;;;1.50;;
13028;SDS011;6581;42.662;23.402;2022-07-12T08:09:07;2.92;;;1.80;;
13028;SDS011;6581;42.662;23.402;2022-07-12T08:11:35;2.20;;;1.40;;
13028;SDS011;6581;42.662;23.402;2022-07-12T08:14:03;4.03;;;1.60;;
13028;SDS011;6581;42.662;23.402;2022-07-12T08:16:31;3.83;;;1.65;;
13028;SDS011;6581;42.662;23.402;2022-07-12T08:19:00;3.67;;;1.48;;
13028;SDS011;6581;42.662;23.402;2022-07-12T08:21:27;3.17;;;1.50;;
13028;SDS011;6581;42.662;23.402;2022-07-12T08:23:55;2.35;;;1.50;;
13028;SDS011;6581;42.662;23.402;2022-07-12T08:26:22;4.72;;;1.80;;
13028;SDS011;6581;42.662;23.402;2022-07-12T08:28:50;3.70;;;1.40;;
13028;SDS011;6581;42.662;23.402;2022-07-12T08:31:18;1.48;;;1.30;;
13028;SDS011;6581;42.662;23.402;2022-07-12T08:33:45;3.17;;;1.80;;
13028;SDS011;6581;42.662;23.402;2022-07-12T08:36:13;2.05;;;1.42;;
13028;SDS011;6581;42.662;23.402;2022-07-12T08:38:40;1.75;;;1.65;;
13028;SDS011;6581;42.662;23.402;2022-07-12T08:41:13;3.75;;;1.90;;
13028;SDS011;6581;42.662;23.402;2022-07-12T08:43:41;2.13;;;1.52;;
13028;SDS011;6581;42.662;23.402;2022-07-12T08:46:09;2.13;;;1.50;;
13028;SDS011;6581;42.662;23.402;2022-07-12T08:48:38;2.33;;;1.50;;
13028;SDS011;6581;42.662;23.402;2022-07-12T08:51:07;4.07;;;1.40;;
13028;SDS011;6581;42.662;23.402;2022-07-12T08:53:38;2.03;;;1.20;;
13028;SDS011;6581;42.662;23.402;2022-07-12T08:56:06;2.35;;;1.50;;
13028;SDS011;6581;42.662;23.402;2022-07-12T08:58:34;2.80;;;1.50;;
13028;SDS011;6581;42.662;23.402;2022-07-12T09:01:01;5.82;;;1.75;;
13028;SDS011;6581;42.662;23.402;2022-07-12T09:03:29;3.95;;;1.70;;
13028;SDS011;6581;42.662;23.402;2022-07-12T09:05:56;2.78;;;1.73;;
13028;SDS011;6581;42.662;23.402;2022-07-12T09:08:25;4.05;;;1.70;;
13028;SDS011;6581;42.662;23.402;2022-07-12T09:10:57;3.15;;;1.45;;
13028;SDS011;6581;42.662;23.402;2022-07-12T09:16:18;3.30;;;1.50;;
13028;SDS011;6581;42.662;23.402;2022-07-12T09:18:46;3.92;;;1.88;;
13028;SDS011;6581;42.662;23.402;2022-07-12T09:21:24;3.80;;;1.30;;
13028;SDS011;6581;42.662;23.402;2022-07-12T09:23:53;3.40;;;1.48;;
13028;SDS011;6581;42.662;23.402;2022-07-12T09:26:23;2.60;;;1.20;;
13028;SDS011;6581;42.662;23.402;2022-07-12T09:28:51;3.95;;;1.90;;
13028;SDS011;6581;42.662;23.402;2022-07-12T09:31:18;3.65;;;1.63;;
13028;SDS011;6581;42.662;23.402;2022-07-12T09:34:01;2.15;;;1.52;;
13028;SDS011;6581;42.662;23.402;2022-07-12T09:36:56;2.28;;;1.40;;
13028;SDS011;6581;42.662;23.402;2022-07-12T09:39:24;1.75;;;1.20;;
13028;SDS011;6581;42.662;23.402;2022-07-12T09:42:18;2.08;;;1.13;;
13028;SDS011;6581;42.662;23.402;2022-07-12T09:44:46;2.63;;;1.17;;
13028;SDS011;6581;42.662;23.402;2022-07-12T09:47:14;3.25;;;1.33;;
13028;SDS011;6581;42.662;23.402;2022-07-12T09:49:42;1.98;;;1.20;;
13028;SDS011;6581;42.662;23.402;2022-07-12T09:52:11;1.67;;;1.10;;
13028;SDS011;6581;42.662;23.402;2022-07-12T09:54:42;2.42;;;1.30;;
13028;SDS011;6581;42.662;23.402;2022-07-12T09:57:13;2.35;;;1.20;;
13028;SDS011;6581;42.662;23.402;2022-07-12T09:59:47;1.23;;;1.10;;
13028;SDS011;6581;42.662;23.402;2022-07-12T10:02:16;1.50;;;1.08;;
13028;SDS011;6581;42.662;23.402;2022-07-12T10:04:44;3.92;;;1.25;;
13028;SDS011;6581;42.662;23.402;2022-07-12T10:07:13;2.17;;;0.95;;
13028;SDS011;6581;42.662;23.402;2022-07-12T10:09:44;2.63;;;1.30;;
13028;SDS011;6581;42.662;23.402;2022-07-12T10:12:15;2.40;;;1.20;;
13028;SDS011;6581;42.662;23.402;2022-07-12T10:14:45;2.53;;;1.00;;
13028;SDS011;6581;42.662;23.402;2022-07-12T10:17:20;1.38;;;1.10;;
13028;SDS011;6581;42.662;23.402;2022-07-12T10:19:48;1.17;;;1.00;;
13028;SDS011;6581;42.662;23.402;2022-07-12T10:22:19;2.17;;;1.10;;
13028;SDS011;6581;42.662;23.402;2022-07-12T10:24:49;1.63;;;1.00;;
13028;SDS011;6581;42.662;23.402;2022-07-12T10:27:32;1.38;;;1.15;;
13028;SDS011;6581;42.662;23.402;2022-07-12T10:30:14;3.72;;;1.38;;
13028;SDS011;6581;42.662;23.402;2022-07-12T10:32:44;2.55;;;0.93;;
13028;SDS011;6581;42.662;23.402;2022-07-12T10:35:15;4.82;;;2.72;;
13028;SDS011;6581;42.662;23.402;2022-07-12T10:40:45;3.65;;;1.02;;
13028;SDS011;6581;42.662;23.402;2022-07-12T10:46:25;1.35;;;1.20;;
13028;SDS011;6581;42.662;23.402;2022-07-12T10:52:16;1.25;;;0.95;;
13028;SDS011;6581;42.662;23.402;2022-07-12T10:58:08;1.58;;;1.10;;
13028;SDS011;6581;42.662;23.402;2022-07-12T11:00:35;2.15;;;1.00;;
13028;SDS011;6581;42.662;23.402;2022-07-12T11:03:05;1.08;;;0.90;;
13028;SDS011;6581;42.662;23.402;2022-07-12T11:05:41;1.20;;;1.02;;
13028;SDS011;6581;42.662;23.402;2022-07-12T11:08:13;3.40;;;1.50;;
13028;SDS011;6581;42.662;23.402;2022-07-12T11:10:53;2.50;;;1.40;;
13028;SDS011;6581;42.662;23.402;2022-07-12T11:13:21;1.38;;;1.23;;
13028;SDS011;6581;42.662;23.402;2022-07-12T11:15:58;1.80;;;1.38;;
13028;SDS011;6581;42.662;23.402;2022-07-12T11:18:30;2.50;;;1.20;;
13028;SDS011;6581;42.662;23.402;2022-07-12T11:21:00;1.52;;;1.10;;
13028;SDS011;6581;42.662;23.402;2022-07-12T11:23:29;2.83;;;1.17;;
13028;SDS011;6581;42.662;23.402;2022-07-12T11:25:57;2.70;;;1.40;;
13028;SDS011;6581;42.662;23.402;2022-07-12T11:28:26;4.78;;;1.40;;
13028;SDS011;6581;42.662;23.402;2022-07-12T11:31:00;2.13;;;1.10;;
13028;SDS011;6581;42.662;23.402;2022-07-12T11:33:31;1.45;;;1.05;;
13028;SDS011;6581;42.662;23.402;2022-07-12T11:36:24;2.30;;;1.20;;
13028;SDS011;6581;42.662;23.402;2022-07-12T11:38:53;5.93;;;1.70;;
13028;SDS011;6581;42.662;23.402;2022-07-12T11:41:20;2.88;;;1.42;;
13028;SDS011;6581;42.662;23.402;2022-07-12T11:43:48;3.58;;;1.25;;
13028;SDS011;6581;42.662;23.402;2022-07-12T11:46:16;2.97;;;1.50;;
13028;SDS011;6581;42.662;23.402;2022-07-12T11:48:44;2.22;;;1.25;;
13028;SDS011;6581;42.662;23.402;2022-07-12T11:51:12;1.17;;;0.98;;
13028;SDS011;6581;42.662;23.402;2022-07-12T11:53:40;2.33;;;1.15;;
13028;SDS011;6581;42.662;23.402;2022-07-12T11:56:08;3.47;;;1.48;;
13028;SDS011;6581;42.662;23.402;2022-07-12T11:58:38;1.20;;;1.10;;
13028;SDS011;6581;42.662;23.402;2022-07-12T12:01:11;2.28;;;1.20;;
13028;SDS011;6581;42.662;23.402;2022-07-12T12:03:42;2.17;;;1.40;;
13028;SDS011;6581;42.662;23.402;2022-07-12T12:06:12;1.38;;;1.20;;
13028;SDS011;6581;42.662;23.402;2022-07-12T12:08:39;1.50;;;1.40;;
13028;SDS011;6581;42.662;23.402;2022-07-12T12:11:07;1.73;;;1.30;;
13028;SDS011;6581;42.662;23.402;2022-07-12T12:13:34;2.25;;;1.15;;
13028;SDS011;6581;42.662;23.402;2022-07-12T12:16:02;2.28;;;1.20;;
13028;SDS011;6581;42.662;23.402;2022-07-12T12:18:31;1.20;;;1.20;;
13028;SDS011;6581;42.662;23.402;2022-07-12T12:21:02;1.42;;;1.25;;
13028;SDS011;6581;42.662;23.402;2022-07-12T12:24:21;1.52;;;1.02;;
13028;SDS011;6581;42.662;23.402;2022-07-12T12:26:48;2.85;;;1.20;;
13028;SDS011;6581;42.662;23.402;2022-07-12T12:29:17;1.50;;;1.25;;
13028;SDS011;6581;42.662;23.402;2022-07-12T12:31:55;1.95;;;1.27;;
13028;SDS011;6581;42.662;23.402;2022-07-12T12:34:23;1.30;;;1.20;;
13028;SDS011;6581;42.662;23.402;2022-07-12T12:36:52;2.75;;;1.23;;
13028;SDS011;6581;42.662;23.402;2022-07-12T12:39:28;1.77;;;1.23;;
13028;SDS011;6581;42.662;23.402;2022-07-12T12:41:57;2.10;;;1.05;;
13028;SDS011;6581;42.662;23.402;2022-07-12T12:44:25;2.72;;;1.27;;
13028;SDS011;6581;42.662;23.402;2022-07-12T12:46:53;4.35;;;1.20;;
13028;SDS011;6581;42.662;23.402;2022-07-12T12:49:45;1.50;;;1.30;;
13028;SDS011;6581;42.662;23.402;2022-07-12T12:52:16;2.53;;;1.30;;
13028;SDS011;6581;42.662;23.402;2022-07-12T12:54:44;1.40;;;1.05;;
13028;SDS011;6581;42.662;23.402;2022-07-12T12:57:12;1.75;;;1.20;;
13028;SDS011;6581;42.662;23.402;2022-07-12T12:59:39;1.67;;;1.45;;
13028;SDS011;6581;42.662;23.402;2022-07-12T13:02:06;1.67;;;1.23;;
13028;SDS011;6581;42.662;23.402;2022-07-12T13:04:35;2.95;;;1.20;;
13028;SDS011;6581;42.662;23.402;2022-07-12T13:07:03;1.55;;;1.27;;
13028;SDS011;6581;42.662;23.402;2022-07-12T13:12:26;1.58;;;1.10;;
13028;SDS011;6581;42.662;23.402;2022-07-12T13:14:53;2.25;;;1.40;;
13028;SDS011;6581;42.662;23.402;2022-07-12T13:17:20;1.85;;;1.20;;
13028;SDS011;6581;42.662;23.402;2022-07-12T13:19:47;3.10;;;1.40;;
13028;SDS011;6581;42.662;23.402;2022-07-12T13:22:14;1.80;;;1.60;;
13028;SDS011;6581;42.662;23.402;2022-07-12T13:27:36;3.63;;;1.20;;
13028;SDS011;6581;42.662;23.402;2022-07-12T13:30:04;2.47;;;1.20;;
13028;SDS011;6581;42.662;23.402;2022-07-12T13:32:33;1.98;;;1.23;;
13028;SDS011;6581;42.662;23.402;2022-07-12T13:35:00;2.88;;;1.40;;
13028;SDS011;6581;42.662;23.402;2022-07-12T13:37:28;2.90;;;1.27;;
13028;SDS011;6581;42.662;23.402;2022-07-12T13:39:56;4.28;;;1.17;;
13028;SDS011;6581;42.662;23.402;2022-07-12T13:43:06;2.90;;;1.55;;
13028;SDS011;6581;42.662;23.402;2022-07-12T13:45:33;1.30;;;1.20;;
13028;SDS011;6581;42.662;23.402;2022-07-12T13:48:00;2.20;;;1.13;;
13028;SDS011;6581;42.662;23.402;2022-07-12T13:50:28;3.47;;;1.30;;
13028;SDS011;6581;42.662;23.402;2022-07-12T13:52:55;3.13;;;1.05;;
13028;SDS011;6581;42.662;23.402;2022-07-12T13:55:24;2.25;;;1.42;;
13028;SDS011;6581;42.662;23.402;2022-07-12T13:57:51;1.40;;;1.30;;
13028;SDS011;6581;42.662;23.402;2022-07-12T14:00:20;2.90;;;1.40;;
13028;SDS011;6581;42.662;23.402;2022-07-12T14:02:48;1.20;;;1.05;;
13028;SDS011;6581;42.662;23.402;2022-07-12T14:05:16;1.63;;;1.10;;
13028;SDS011;6581;42.662;23.402;2022-07-12T14:07:45;2.45;;;1.20;;
13028;SDS011;6581;42.662;23.402;2022-07-12T14:10:13;1.80;;;1.10;;
13028;SDS011;6581;42.662;23.402;2022-07-12T14:12:41;2.50;;;1.40;;
13028;SDS011;6581;42.662;23.402;2022-07-12T14:15:09;2.15;;;1.40;;
13028;SDS011;6581;42.662;23.402;2022-07-12T14:18:04;1.70;;;1.20;;
13028;SDS011;6581;42.662;23.402;2022-07-12T14:20:32;2.83;;;1.30;;
13028;SDS011;6581;42.662;23.402;2022-07-12T14:23:00;2.33;;;1.13;;
13028;SDS011;6581;42.662;23.402;2022-07-12T14:25:29;1.85;;;1.40;;
13028;SDS011;6581;42.662;23.402;2022-07-12T14:27:56;2.13;;;1.40;;
13028;SDS011;6581;42.662;23.402;2022-07-12T14:30:23;3.95;;;1.48;;
13028;SDS011;6581;42.662;23.402;2022-07-12T14:32:51;1.75;;;1.05;;
13028;SDS011;6581;42.662;23.402;2022-07-12T14:35:19;2.70;;;1.20;;
13028;SDS011;6581;42.662;23.402;2022-07-12T14:37:46;1.00;;;0.95;;
13028;SDS011;6581;42.662;23.402;2022-07-12T14:40:14;2.72;;;1.40;;
13028;SDS011;6581;42.662;23.402;2022-07-12T14:42:41;2.55;;;1.27;;
13028;SDS011;6581;42.662;23.402;2022-07-12T14:45:09;1.40;;;1.30;;
13028;SDS011;6581;42.662;23.402;2022-07-12T14:47:37;1.25;;;1.15;;
13028;SDS011;6581;42.662;23.402;2022-07-12T14:50:04;2.30;;;1.25;;
13028;SDS011;6581;42.662;23.402;2022-07-12T14:52:34;2.47;;;1.30;;
13028;SDS011;6581;42.662;23.402;2022-07-12T14:55:02;1.50;;;1.25;;
13028;SDS011;6581;42.662;23.402;2022-07-12T14:57:30;2.83;;;1.30;;
13028;SDS011;6581;42.662;23.402;2022-07-12T14:59:57;3.40;;;1.30;;
13028;SDS011;6581;42.662;23.402;2022-07-12T15:02:24;3.10;;;1.40;;
13028;SDS011;6581;42.662;23.402;2022-07-12T15:04:54;1.90;;;1.20;;
13028;SDS011;6581;42.662;23.402;2022-07-12T15:07:21;2.30;;;1.13;;
13028;SDS011;6581;42.662;23.402;2022-07-12T15:09:50;2.72;;;1.30;;
13028;SDS011;6581;42.662;23.402;2022-07-12T15:12:17;2.15;;;1.27;;
13028;SDS011;6581;42.662;23.402;2022-07-12T15:14:45;1.75;;;1.23;;
13028;SDS011;6581;42.662;23.402;2022-07-12T15:17:13;1.52;;;1.17;;
13028;SDS011;6581;42.662;23.402;2022-07-12T15:19:43;2.83;;;2.05;;
13028;SDS011;6581;42.662;23.402;2022-07-12T15:22:10;3.63;;;2.60;;
13028;SDS011;6581;42.662;23.402;2022-07-12T15:24:38;5.80;;;3.97;;